createdAt,value
2022-12-20T00:02:24.635Z,17.56
2022-12-20T00:07:27.137Z,17.56
2022-12-20T00:12:30.777Z,17.57
2022-12-20T00:17:33.173Z,17.56
2022-12-20T00:22:35.471Z,17.53
2022-12-20T00:27:37.674Z,17.55
2022-12-20T00:32:39.929Z,17.56
2022-12-20T00:37:42.924Z,17.57
2022-12-20T00:42:45.114Z,17.54
2022-12-20T00:47:47.183Z,17.52
2022-12-20T00:52:49.304Z,17.53
2022-12-20T00:57:51.416Z,17.56
2022-12-20T01:02:53.749Z,17.57
2022-12-20T01:07:56.049Z,17.56
2022-12-20T01:12:58.309Z,17.54
2022-12-20T01:18:00.625Z,17.52
2022-12-20T01:23:03.200Z,17.50
2022-12-20T01:28:05.454Z,17.56
2022-12-20T01:33:07.587Z,17.56
2022-12-20T01:38:09.803Z,17.52
2022-12-20T01:43:15.416Z,17.52
2022-12-20T01:48:23.396Z,17.54
2022-12-20T01:53:25.701Z,17.55
2022-12-20T01:58:28.007Z,17.57
2022-12-20T02:03:32.408Z,17.53
2022-12-20T02:08:34.750Z,17.53
2022-12-20T02:14:06.537Z,17.50
2022-12-20T02:19:27.029Z,17.50
2022-12-20T02:24:57.478Z,17.49
2022-12-20T02:30:20.540Z,17.49
2022-12-20T02:35:26.891Z,17.51
2022-12-20T02:40:35.513Z,17.53
2022-12-20T02:45:37.967Z,17.53
2022-12-20T02:50:54.309Z,17.51
2022-12-20T02:56:09.661Z,17.48
2022-12-20T03:01:23.333Z,17.50
2022-12-20T03:06:26.046Z,17.49
2022-12-20T03:11:28.568Z,17.50
2022-12-20T03:16:31.705Z,17.51
2022-12-20T03:21:34.062Z,17.50
2022-12-20T03:26:36.756Z,17.52
2022-12-20T03:31:39.470Z,17.50
2022-12-20T03:36:41.705Z,17.50
2022-12-20T03:41:43.955Z,17.52
2022-12-20T03:46:48.650Z,17.52
2022-12-20T03:51:51.446Z,17.54
2022-12-20T03:56:53.850Z,17.51
2022-12-20T04:01:56.876Z,17.49
2022-12-20T04:07:00.611Z,17.50
2022-12-20T04:12:03.487Z,17.47
2022-12-20T04:17:07.218Z,17.49
2022-12-20T04:22:10.261Z,17.51
2022-12-20T04:27:27.696Z,17.53
2022-12-20T04:32:31.816Z,17.49
2022-12-20T04:37:35.871Z,17.49
2022-12-20T04:42:38.432Z,17.48
2022-12-20T04:47:40.660Z,17.47
2022-12-20T04:53:03.524Z,17.49
2022-12-20T04:58:07.887Z,17.49
2022-12-20T05:03:13.192Z,17.44
2022-12-20T05:08:16.227Z,17.50
2022-12-20T05:13:18.838Z,17.48
2022-12-20T05:18:23.254Z,17.48
2022-12-20T05:23:50.523Z,17.48
2022-12-20T05:28:57.824Z,17.48
2022-12-20T05:34:02.019Z,17.49
2022-12-20T05:39:07.917Z,17.51
2022-12-20T05:44:13.708Z,17.50
2022-12-20T05:49:19.234Z,17.47
2022-12-20T05:54:21.920Z,17.48
2022-12-20T05:59:32.052Z,17.47
2022-12-20T06:04:34.805Z,17.47
2022-12-20T06:09:41.858Z,17.48
2022-12-20T06:14:48.463Z,17.50
2022-12-20T06:19:51.494Z,17.50
2022-12-20T06:24:53.692Z,17.47
2022-12-20T06:30:00.644Z,17.47
2022-12-20T06:35:10.082Z,17.48
2022-12-20T06:40:13.979Z,17.49
2022-12-20T06:45:16.785Z,17.49
2022-12-20T06:50:19.413Z,17.48
2022-12-20T06:55:21.608Z,17.47
2022-12-20T07:00:24.396Z,17.48
2022-12-20T07:05:26.595Z,17.47
2022-12-20T07:10:28.737Z,17.46
2022-12-20T07:15:30.757Z,17.49
2022-12-20T07:20:33.380Z,17.47
2022-12-20T07:25:35.495Z,17.47
2022-12-20T07:30:37.673Z,17.47
2022-12-20T07:35:40.611Z,17.49
2022-12-20T07:40:43.655Z,17.49
2022-12-20T07:45:45.949Z,17.48
2022-12-20T07:50:48.260Z,17.46
2022-12-20T07:55:50.529Z,17.46
2022-12-20T08:00:52.931Z,17.48
2022-12-20T08:06:01.070Z,17.50
2022-12-20T08:11:04.793Z,17.48
2022-12-20T08:16:07.544Z,17.45
2022-12-20T08:21:10.866Z,17.46
2022-12-20T08:26:12.957Z,17.48
2022-12-20T08:31:15.257Z,17.49
2022-12-20T08:36:17.414Z,17.48
2022-12-20T08:41:19.789Z,17.46
2022-12-20T08:46:21.824Z,17.47
2022-12-20T08:51:24.250Z,17.47
2022-12-20T08:56:26.453Z,17.47
2022-12-20T09:01:30.548Z,17.48
2022-12-20T09:06:34.806Z,17.46
2022-12-20T09:11:37.286Z,17.46
2022-12-20T09:16:39.800Z,17.46
2022-12-20T09:21:42.879Z,17.47
2022-12-20T09:26:45.792Z,17.48
2022-12-20T09:31:51.423Z,17.48
2022-12-20T09:36:53.844Z,17.46
2022-12-20T09:41:57.589Z,17.46
2022-12-20T09:47:10.584Z,17.48
2022-12-20T09:52:16.111Z,17.48
2022-12-20T09:57:43.408Z,17.48
2022-12-20T10:03:09.370Z,17.45
2022-12-20T10:08:16.058Z,17.44
2022-12-20T10:13:51.839Z,17.46
2022-12-20T10:19:08.953Z,17.48
2022-12-20T10:24:24.914Z,17.50
2022-12-20T10:29:26.852Z,17.43
2022-12-20T10:34:34.978Z,17.46
2022-12-20T10:39:44.898Z,17.46
2022-12-20T10:44:46.973Z,17.46
2022-12-20T10:49:49.104Z,17.47
2022-12-20T10:54:51.235Z,17.48
2022-12-20T11:00:05.751Z,17.47
2022-12-20T11:05:10.870Z,17.50
2022-12-20T11:10:25.347Z,17.48
2022-12-20T11:15:34.406Z,17.47
2022-12-20T11:20:48.130Z,17.48
2022-12-20T11:26:06.153Z,17.48
2022-12-20T11:31:36.139Z,17.50
2022-12-20T11:37:04.769Z,17.49
2022-12-20T11:42:29.576Z,17.46
2022-12-20T11:47:58.063Z,17.47
2022-12-20T11:53:08.056Z,17.49
2022-12-20T11:58:19.952Z,17.51
2022-12-20T12:03:30.726Z,17.42
2022-12-20T12:08:50.579Z,17.47
2022-12-20T12:13:53.229Z,17.50
2022-12-20T12:18:55.308Z,17.53
2022-12-20T12:23:57.443Z,17.53
2022-12-20T12:29:07.160Z,17.53
2022-12-20T12:34:26.913Z,17.51
2022-12-20T12:39:29.039Z,17.51
2022-12-20T12:44:52.259Z,17.52
2022-12-20T12:49:57.049Z,17.53
2022-12-20T12:54:59.205Z,17.52
2022-12-20T13:00:01.357Z,17.52
2022-12-20T13:05:06.487Z,17.54
2022-12-20T13:10:08.607Z,17.55
2022-12-20T13:15:22.646Z,17.57
2022-12-20T13:20:30.492Z,17.55
2022-12-20T13:25:33.060Z,17.54
2022-12-20T13:30:35.252Z,17.55
2022-12-20T13:36:21.739Z,17.56
2022-12-20T13:41:48.200Z,17.57
2022-12-20T13:46:50.729Z,17.58
2022-12-20T13:52:25.715Z,17.56
2022-12-20T13:57:48.111Z,17.55
2022-12-20T14:02:50.404Z,17.59
2022-12-20T14:08:00.221Z,17.58
2022-12-20T14:13:02.701Z,17.59
2022-12-20T14:18:20.434Z,17.57
2022-12-20T14:23:26.293Z,17.59
2022-12-20T14:28:35.454Z,17.59
2022-12-20T14:33:40.374Z,17.61
2022-12-20T14:38:51.618Z,17.61
2022-12-20T14:44:00.321Z,17.60
2022-12-20T14:49:22.353Z,17.59
2022-12-20T15:00:18.728Z,17.61
2022-12-20T15:05:39.041Z,17.62
2022-12-20T15:11:10.877Z,17.60
2022-12-20T15:16:21.869Z,17.62
2022-12-20T15:21:40.629Z,17.61
2022-12-20T15:26:43.316Z,17.61
2022-12-20T15:31:47.659Z,17.63
2022-12-20T15:36:49.945Z,17.65
2022-12-20T15:41:52.868Z,17.65
2022-12-20T15:46:55.643Z,17.63
2022-12-20T15:51:58.473Z,17.64
2022-12-20T15:57:09.578Z,17.64
2022-12-20T16:02:22.767Z,17.63
2022-12-20T16:07:25.492Z,17.62
2022-12-20T16:12:32.765Z,17.64
2022-12-20T16:17:35.044Z,17.65
2022-12-20T16:22:37.239Z,17.66
2022-12-20T16:27:39.361Z,17.65
2022-12-20T16:32:41.596Z,17.65
2022-12-20T16:37:43.977Z,17.65
2022-12-20T16:42:46.415Z,17.65
2022-12-20T16:47:49.230Z,17.66
2022-12-20T16:52:52.042Z,17.68
2022-12-20T16:57:54.904Z,17.68
2022-12-20T17:02:59.036Z,17.68
2022-12-20T17:08:01.558Z,17.66
2022-12-20T17:13:03.809Z,17.67
2022-12-20T17:18:06.325Z,17.68
2022-12-20T17:28:32.750Z,17.68
2022-12-20T17:33:34.953Z,17.66
2022-12-20T17:38:37.236Z,17.65
2022-12-20T17:43:39.371Z,17.67
2022-12-20T17:48:43.931Z,17.68
2022-12-20T17:53:48.064Z,17.68
2022-12-20T17:58:50.209Z,17.65
2022-12-20T18:04:03.568Z,17.64
2022-12-20T18:09:12.742Z,17.67
2022-12-20T18:14:16.272Z,17.69
2022-12-20T18:19:19.296Z,17.69
2022-12-20T18:24:22.104Z,17.68
2022-12-20T18:29:24.254Z,17.67
2022-12-20T18:34:26.467Z,17.66
2022-12-20T18:39:28.638Z,17.65
2022-12-20T18:44:36.013Z,17.67
2022-12-20T18:49:38.448Z,17.69
2022-12-20T18:54:40.613Z,17.68
2022-12-20T18:59:42.901Z,17.67
2022-12-20T19:04:45.115Z,17.65
2022-12-20T19:09:47.323Z,17.65
2022-12-20T19:14:49.500Z,17.68
2022-12-20T19:19:51.820Z,17.69
2022-12-20T19:24:55.950Z,17.69
2022-12-20T19:29:58.113Z,17.68
2022-12-20T19:35:11.309Z,17.61
2022-12-20T19:40:22.618Z,17.65
2022-12-20T19:45:24.923Z,17.66
2022-12-20T19:50:27.176Z,17.66
2022-12-20T19:55:29.474Z,17.65
2022-12-20T20:00:32.728Z,17.66
2022-12-20T20:05:35.152Z,17.69
2022-12-20T20:10:37.553Z,17.68
2022-12-20T20:15:39.834Z,17.67
2022-12-20T20:20:42.046Z,17.66
2022-12-20T20:25:57.044Z,17.66
2022-12-20T20:30:59.429Z,17.69
2022-12-20T20:36:02.088Z,17.68
2022-12-20T20:41:04.356Z,17.69
2022-12-20T20:46:09.328Z,17.67
2022-12-20T20:51:12.289Z,17.66
2022-12-20T20:56:14.468Z,17.69
2022-12-20T21:01:16.691Z,17.68
2022-12-20T21:11:41.259Z,17.68
2022-12-20T21:16:43.713Z,17.67
2022-12-20T21:21:46.393Z,17.66
2022-12-20T21:26:49.318Z,17.65
2022-12-20T21:31:51.546Z,17.66
2022-12-20T21:36:53.892Z,17.68
2022-12-20T21:42:01.652Z,17.68
2022-12-20T21:47:04.542Z,17.67
2022-12-20T21:52:07.178Z,17.65
2022-12-20T21:57:12.072Z,17.66
2022-12-20T22:02:14.774Z,17.66
2022-12-20T22:07:16.961Z,17.68
2022-12-20T22:12:19.200Z,17.67
2022-12-20T22:17:21.417Z,17.64
2022-12-20T22:22:25.838Z,17.66
2022-12-20T22:27:27.918Z,17.65
2022-12-20T22:32:31.877Z,17.67
2022-12-20T22:37:34.093Z,17.68
2022-12-20T22:42:39.010Z,17.65
2022-12-20T22:47:41.959Z,17.63
2022-12-20T22:52:44.172Z,17.63
2022-12-20T22:57:48.056Z,17.62
2022-12-20T23:02:50.549Z,17.64
2022-12-20T23:07:52.838Z,17.65
2022-12-20T23:13:15.316Z,17.66
2022-12-20T23:18:17.727Z,17.66
2022-12-20T23:23:19.863Z,17.65
2022-12-20T23:28:22.209Z,17.66
2022-12-20T23:33:24.381Z,17.65
2022-12-20T23:38:26.887Z,17.66
2022-12-20T23:43:30.549Z,17.67
2022-12-20T23:48:33.605Z,17.64
2022-12-20T23:53:36.214Z,17.62
2022-12-20T23:58:38.719Z,17.63
